HTMW

Details ICAO HTMW (MWZ)
Name MWANZA
Region Tanzania
Timezone Africa/Dar_es_Salaam (UTC+3.0)
Plans Departing 12
Arriving 19
Stats Elevation 3,763 ft / 1,147 m (AMSL)
Location -2.444485° 32.932665°
Runways 1
Magnetic Variation 0.866° E
Sunrise 2017-12-15 03:36:56 UTC / 2017-12-15 06:36:56 Local
Sunset 2017-12-15 15:52:37 UTC / 2017-12-15 18:52:37 Local
Advertisement - Login to hide

Runways

ID Width Length Bearing (true) Bearing (mag) Surface Threshold Offset Overrun Length
12 148 ft / 45 m 10,223 ft / 3,116 m 116.54° 115.67° Asphalt 300 ft / 91 m 615 ft / 187 m
30 148 ft / 45 m 10,223 ft / 3,116 m 296.54° 295.67° Asphalt 0 ft / 0 m 0 ft / 0 m

Map

Weather


0- 5 10 15 20 25 30 35+ Temperature / ° C

Clouds and Precipitation
Forecast for 2017-12-16 00:00 UTC. Updated 31 minutes ago

Ground ~20,000 ft ~40,000 ft Winds

METAR

HTMW 151900Z 09006KT 9999 FEW022 FEW023CB SCT280 22/20 Q1015 NOSIG

TAF

TAF HTMW 151700Z 1518/1618 00000KT 9999 FEW024 FEW025CB TEMPO 1520/1602 12010KT TS SCT023 FEW024CB BKN090 BECMG 1609/1611 28010KT NSW FEW024 FEW025CB SCT100

Frequencies

Tower 123.10 MHz TWR
Approach 123.10 MHz APP
Warning: Do not use this data for real-world aviation or navigation. No guarantee of current accuracy is given.